Terminal Aerodrome Forecast
Issued by NWS Norman, OK

Home | Current Version | Previous Version | Text Only | Print | Product List | Glossary On
Versions: 1 2 3 4 5 6 7 8 9 10 11 12 13 14
000
FTUS44 KOUN 221732
TAFSPS
TAF
KSPS 221732Z 2218/2318 12006KT P6SM SCT035
      TEMPO 2218/2219 BKN025
     FM231200 30012KT P6SM BKN035
     FM231400 35016G23KT P6SM BKN035=

USA.gov is the U.S. government's official web portal to all federal, state and local government web resources and services.